aviador You're here:

KHKS Decoded Metar

JACKSON/HAWKINS in MS, USA
Report Time2017-03-23 22:53:00
UTC Time2017-03-24 00:01:03
Flight Rules Old
Wind150° at 11 kt
W.Decomp.*RWY 16: 10.8 kt HW 1.9 kt LCW
RWY 11: 8.4 kt HW 7.1 kt RCW
W.Rank150° ranks 3
Current wind is above 150° avg. (6.9)
Visibility9999 m
Phenomena:N/A
Clouds:Scattered 075 Hf
Expected CloudBase > 6,400 ft AGL from Temp-Dew spread
CeilingNone
Temp28°C (ISA +14)
Dew Point12°C (37% RH)
Heat Index27.5°C
AAT24.6°C
QNH1020 hPa
Density Alt1,886 ft
Elevation354 ft
Report Wrong Elevation
Raw Report
KHKS 232253Z 15011KT 10SM SCT075 28/12 A3012 RMK AO2 SLP192
T02830117=

Extra information for KHKS:More info

Metar Taf Metar & Taf Last 4 Metars F.Rules Stats Wind Profile Meteogram Temp Stats Airport Information Weather charts Add Link Nearby VenuesMetar ALERT Operation Metar Decoded Social comments

AIRNAV info for KHKS